Aérodrome :
LOGIN :

S'inscrire | Disclaimer

   EN    FR    IT 

 










Légende :    VFR   VFR Marginal   IFR   IFR Intensif   IFR Très Intensif
Visi : 
Plafond : 
>= 8 km
>= 3000ft
5 à 8 km
1000 à 3000 ft
1500m à 5 km
500 à 1000 ft
800 à 1500m
200 à 500 ft
< 800m
< 200 ft
Symboles :   Orages  Brouillard  Fortes neiges  Fortes précipitations  Vent > 20 kt
SIGMETs :   Divers  Orages  Givrage  Turbulence  Onde Orograph.  Cendres Volcan.







- Altitude de l'aérodrome : 1260 ft
- Code IATA : LDE
- Voir les cartes d'approche


LFBT - Tarbes / Ossun

DERNIER METAR :
  • 270400Z AUTO 36003KT CAVOK 16/13 Q1014 NOSIG

METARs EXPIRÉS :
  • 270330Z AUTO 01006KT CAVOK 17/13 Q1014 NOSIG
  • 270300Z AUTO 04006KT CAVOK 17/13 Q1014 NOSIG
  • 270230Z AUTO 14007KT CAVOK 19/14 Q1015 NOSIG
  • 270200Z AUTO 13007KT CAVOK 18/14 Q1015 TEMPO BKN014
  • 270130Z AUTO 16004KT 110V240 CAVOK 18/13 Q1016 TEMPO BKN014

TAF AMD TAF LFBT
Valide du 27 à 02h jusqu'au 28 à 00h UTC


270205Z 2702/2724 VRB02KT CAVOK
BECMG 2710/2712 06010KT
BECMG 2719/2721 VRB02KT
Pas de NOTAMs connus pour ce terrain.



MET'MAP, la Météo Aéronautique d'un coup d'oeil ! - Copyright ORBIFLY Décembre 2007 - Disclaimer

ORBIFLY MET'MAP TEAM :

Programmation & Développement : Alexandra Zaïnal
Conception & Développement : Baudouin d'Aumeries
Co-Programmation & Développement : Marc-Olivier Méhu
Soutien technique & logistique : Manuel Goepfert

Contact : metmap@orbifly.com




SOURCES & CREDITS :

   NOAA